createdAt,value
2022-08-05T00:02:27.491Z,21.06
2022-08-05T00:04:56.175Z,21.06
2022-08-05T00:07:59.047Z,21.00
2022-08-05T00:10:10.663Z,20.96
2022-08-05T00:12:56.589Z,20.84
2022-08-05T00:15:55.851Z,20.69
2022-08-05T00:18:19.822Z,20.62
2022-08-05T00:20:48.982Z,20.64
2022-08-05T00:23:15.900Z,20.65
2022-08-05T00:25:45.619Z,20.60
2022-08-05T00:28:13.267Z,20.64
2022-08-05T00:30:41.240Z,20.57
2022-08-05T00:33:15.375Z,20.56
2022-08-05T00:36:16.139Z,20.44
2022-08-05T00:38:44.940Z,20.44
2022-08-05T00:41:12.751Z,20.50
2022-08-05T00:43:46.936Z,20.43
2022-08-05T00:46:16.512Z,20.39
2022-08-05T00:48:50.578Z,20.35
2022-08-05T00:51:50.443Z,20.31
2022-08-05T00:54:06.340Z,20.22
2022-08-05T00:56:32.873Z,20.26
2022-08-05T00:59:00.216Z,20.23
2022-08-05T01:01:48.151Z,20.10
2022-08-05T01:04:14.324Z,20.05
2022-08-05T01:06:43.716Z,20.08
2022-08-05T01:09:17.233Z,20.06
2022-08-05T01:11:49.570Z,19.98
2022-08-05T01:14:51.491Z,19.98
2022-08-05T01:17:44.058Z,19.93
2022-08-05T01:20:31.204Z,19.93
2022-08-05T01:23:23.706Z,19.94
2022-08-05T01:25:56.129Z,19.86
2022-08-05T01:28:28.678Z,19.76
2022-08-05T01:31:07.472Z,19.84
2022-08-05T01:33:42.243Z,19.98
2022-08-05T01:36:18.825Z,19.98
2022-08-05T01:38:49.882Z,19.87
2022-08-05T01:41:22.554Z,19.75
2022-08-05T01:43:53.669Z,19.60
2022-08-05T01:46:42.238Z,19.61
2022-08-05T01:49:22.668Z,19.55
2022-08-05T01:51:54.129Z,19.47
2022-08-05T01:54:25.655Z,19.49
2022-08-05T01:58:11.438Z,19.45
2022-08-05T01:59:47.290Z,19.43
2022-08-05T02:02:15.983Z,19.42
2022-08-05T02:04:46.194Z,19.41
2022-08-05T02:07:22.091Z,19.44
2022-08-05T02:09:50.327Z,19.42
2022-08-05T02:12:38.788Z,19.33
2022-08-05T02:15:13.827Z,19.21
2022-08-05T02:18:32.484Z,19.23
2022-08-05T02:20:47.611Z,19.29
2022-08-05T02:23:20.116Z,19.30
2022-08-05T02:25:50.563Z,19.28
2022-08-05T02:28:29.269Z,19.25
2022-08-05T02:31:01.284Z,19.22
2022-08-05T02:33:35.977Z,19.15
2022-08-05T02:36:13.620Z,19.23
2022-08-05T02:38:45.530Z,19.15
2022-08-05T02:41:22.901Z,19.10
2022-08-05T02:44:02.837Z,19.11
2022-08-05T02:46:35.575Z,19.14
2022-08-05T02:49:13.201Z,19.09
2022-08-05T02:52:04.301Z,19.07
2022-08-05T02:54:36.091Z,19.12
2022-08-05T02:57:10.399Z,19.13
2022-08-05T02:59:54.381Z,19.06
2022-08-05T03:02:27.497Z,19.07
2022-08-05T03:04:55.607Z,19.04
2022-08-05T03:07:59.322Z,19.00
2022-08-05T03:10:10.864Z,19.08
2022-08-05T03:12:40.254Z,19.03
2022-08-05T03:15:09.855Z,19.07
2022-08-05T03:17:41.409Z,19.02
2022-08-05T03:20:10.057Z,18.97
2022-08-05T03:22:37.139Z,18.92
2022-08-05T03:25:33.642Z,18.58
2022-08-05T03:28:11.035Z,18.54
2022-08-05T03:30:45.642Z,18.51
2022-08-05T03:33:16.053Z,18.52
2022-08-05T03:35:58.288Z,18.72
2022-08-05T03:38:32.723Z,18.82
2022-08-05T03:41:08.216Z,18.67
2022-08-05T03:44:09.830Z,18.84
2022-08-05T03:46:29.670Z,18.52
2022-08-05T03:48:59.976Z,18.82
2022-08-05T03:52:37.588Z,18.87
2022-08-05T03:56:04.809Z,18.98
2022-08-05T03:57:41.117Z,18.97
2022-08-05T04:00:41.976Z,18.66
2022-08-05T04:10:24.021Z,19.14
2022-08-05T04:17:03.991Z,19.39
2022-08-05T04:22:55.168Z,20.57
2022-08-05T04:25:56.619Z,21.30
2022-08-05T04:42:36.403Z,23.09
2022-08-05T04:45:54.873Z,24.48
2022-08-05T04:53:11.258Z,25.13
2022-08-05T04:59:21.512Z,26.16
2022-08-05T05:02:35.356Z,26.52
2022-08-05T05:04:38.138Z,24.68
2022-08-05T05:07:05.000Z,23.82
2022-08-05T05:09:37.330Z,25.22
2022-08-05T05:12:04.456Z,25.62
2022-08-05T05:14:32.901Z,25.48
2022-08-05T05:17:03.254Z,25.84
2022-08-05T05:19:36.306Z,26.77
2022-08-05T05:22:03.657Z,25.12
2022-08-05T05:24:57.451Z,24.94
2022-08-05T05:27:45.847Z,25.22
2022-08-05T05:30:30.969Z,26.03
2022-08-05T05:33:13.943Z,24.93
2022-08-05T05:35:47.625Z,24.72
2022-08-05T05:38:15.030Z,24.23
2022-08-05T05:40:51.581Z,23.77
2022-08-05T05:43:57.153Z,23.32
2022-08-05T05:46:17.788Z,23.52
2022-08-05T05:48:47.926Z,23.40
2022-08-05T05:51:19.447Z,22.71
2022-08-05T05:53:57.600Z,22.59
2022-08-05T05:56:32.861Z,21.70
2022-08-05T05:59:06.767Z,21.74
2022-08-05T06:01:37.578Z,21.90
2022-08-05T06:04:11.914Z,22.34
2022-08-05T06:06:47.549Z,22.29
2022-08-05T06:09:26.710Z,22.14
2022-08-05T06:12:03.718Z,22.02
2022-08-05T06:14:31.096Z,22.16
2022-08-05T06:16:58.939Z,22.53
2022-08-05T06:19:34.628Z,22.38
2022-08-05T06:22:06.433Z,22.70
2022-08-05T06:24:34.755Z,22.86
2022-08-05T06:27:01.967Z,23.04
2022-08-05T06:29:52.107Z,22.93
2022-08-05T06:32:25.344Z,22.64
2022-08-05T06:34:56.855Z,22.69
2022-08-05T06:37:56.082Z,22.55
2022-08-05T06:40:12.718Z,22.61
2022-08-05T06:42:40.612Z,23.01
2022-08-05T06:45:08.455Z,23.35
2022-08-05T06:48:36.959Z,23.70
2022-08-05T06:50:22.291Z,24.05
2022-08-05T06:52:58.543Z,24.11
2022-08-05T06:55:25.676Z,24.27
2022-08-05T06:58:03.493Z,24.64
2022-08-05T07:00:41.167Z,24.85
2022-08-05T07:03:08.795Z,24.95
2022-08-05T07:05:37.803Z,25.52
2022-08-05T07:08:10.887Z,25.81
2022-08-05T07:10:38.571Z,26.14
2022-08-05T07:13:56.951Z,26.17
2022-08-05T07:17:56.381Z,26.31
2022-08-05T07:19:44.195Z,26.61
2022-08-05T07:22:04.405Z,26.80
2022-08-05T07:24:31.607Z,26.93
2022-08-05T07:26:58.137Z,26.59
2022-08-05T07:30:28.172Z,26.70
2022-08-05T07:32:12.575Z,27.05
2022-08-05T07:34:42.488Z,27.07
2022-08-05T07:37:09.204Z,27.51
2022-08-05T07:40:25.952Z,27.35
2022-08-05T07:42:34.075Z,27.22
2022-08-05T07:45:03.380Z,27.32
2022-08-05T07:47:41.959Z,27.18
2022-08-05T07:50:09.655Z,27.47
2022-08-05T07:52:40.386Z,27.24
2022-08-05T07:55:16.112Z,27.24
2022-08-05T07:58:01.991Z,27.72
2022-08-05T08:00:29.554Z,27.33
2022-08-05T08:03:15.186Z,27.46
2022-08-05T08:05:47.556Z,27.46
2022-08-05T08:08:16.803Z,27.54
2022-08-05T08:10:48.774Z,27.33
2022-08-05T08:13:15.785Z,27.07
2022-08-05T08:16:35.563Z,26.86
2022-08-05T08:18:35.462Z,27.09
2022-08-05T08:21:09.701Z,27.26
2022-08-05T08:24:01.884Z,27.10
2022-08-05T08:26:29.574Z,27.19
2022-08-05T08:29:02.035Z,26.93
2022-08-05T08:31:43.001Z,27.92
2022-08-05T08:34:09.725Z,28.06
2022-08-05T08:36:48.962Z,28.88
2022-08-05T08:39:23.419Z,28.15
2022-08-05T08:41:59.813Z,28.22
2022-08-05T08:45:20.485Z,27.92
2022-08-05T08:47:22.209Z,28.22
2022-08-05T08:50:30.397Z,28.45
2022-08-05T08:53:03.368Z,28.35
2022-08-05T08:56:04.899Z,28.45
2022-08-05T08:58:26.187Z,28.35
2022-08-05T09:01:07.293Z,29.27
2022-08-05T09:03:40.590Z,29.03
2022-08-05T09:06:13.882Z,29.41
2022-08-05T09:08:45.424Z,29.77
2022-08-05T09:11:13.849Z,29.48
2022-08-05T09:14:09.702Z,28.95
2022-08-05T09:16:28.163Z,28.87
2022-08-05T09:18:55.462Z,29.10
2022-08-05T09:22:21.828Z,29.15
2022-08-05T09:24:13.171Z,28.59
2022-08-05T09:26:46.198Z,29.67
2022-08-05T09:29:18.720Z,29.54
2022-08-05T09:32:46.114Z,29.64
2022-08-05T09:34:50.709Z,29.44
2022-08-05T09:38:17.603Z,29.77
2022-08-05T09:40:09.713Z,29.54
2022-08-05T09:42:41.219Z,29.81
2022-08-05T09:46:04.995Z,30.02
2022-08-05T09:47:56.683Z,29.66
2022-08-05T09:50:38.122Z,29.61
2022-08-05T09:53:13.075Z,30.18
2022-08-05T09:56:04.536Z,30.45
2022-08-05T09:58:31.769Z,29.79
2022-08-05T10:01:13.532Z,29.42
2022-08-05T10:03:58.829Z,30.07
2022-08-05T10:06:27.931Z,29.72
2022-08-05T10:08:55.832Z,29.39
2022-08-05T10:11:22.946Z,29.67
2022-08-05T10:13:49.654Z,29.70
2022-08-05T10:16:33.910Z,29.52
2022-08-05T10:19:09.102Z,29.76
2022-08-05T10:21:40.466Z,30.36
2022-08-05T10:24:11.140Z,30.43
2022-08-05T10:26:52.087Z,30.42
2022-08-05T10:30:05.734Z,30.35
2022-08-05T10:32:51.661Z,30.68
2022-08-05T10:35:00.631Z,30.89
2022-08-05T10:37:44.374Z,30.63
2022-08-05T10:40:38.956Z,30.78
2022-08-05T10:43:51.623Z,30.89
2022-08-05T10:46:23.887Z,30.75
2022-08-05T10:49:09.848Z,30.93
2022-08-05T10:51:53.155Z,31.11
2022-08-05T10:55:05.844Z,30.54
2022-08-05T10:57:34.174Z,31.17
2022-08-05T11:00:19.839Z,31.75
2022-08-05T11:02:59.180Z,31.58
2022-08-05T11:06:03.977Z,31.37
2022-08-05T11:08:37.962Z,31.29
2022-08-05T11:11:44.365Z,31.24
2022-08-05T11:14:57.358Z,31.67
2022-08-05T11:17:58.122Z,32.16
2022-08-05T11:20:38.921Z,33.06
2022-08-05T11:23:33.600Z,32.86
2022-08-05T11:26:10.380Z,31.86
2022-08-05T11:28:43.009Z,31.82
2022-08-05T11:31:10.030Z,32.81
2022-08-05T11:33:46.175Z,32.21
2022-08-05T11:36:34.385Z,32.12
2022-08-05T11:39:04.362Z,32.64
2022-08-05T11:42:02.030Z,32.60
2022-08-05T11:44:52.906Z,31.67
2022-08-05T11:47:15.177Z,32.44
2022-08-05T11:49:50.898Z,32.59
2022-08-05T11:52:29.275Z,33.10
2022-08-05T11:54:57.550Z,32.95
2022-08-05T11:58:08.187Z,33.63
2022-08-05T12:00:29.215Z,33.62
2022-08-05T12:02:57.149Z,32.41
2022-08-05T12:05:36.080Z,33.39
2022-08-05T12:08:10.031Z,33.40
2022-08-05T12:10:45.505Z,33.55
2022-08-05T12:13:28.330Z,33.52
2022-08-05T12:16:14.388Z,33.69
2022-08-05T12:18:42.684Z,33.82
2022-08-05T12:21:23.604Z,33.95
2022-08-05T12:23:54.357Z,34.05
2022-08-05T12:26:21.335Z,34.64
2022-08-05T12:28:50.615Z,34.59
2022-08-05T12:31:23.377Z,34.16
2022-08-05T12:34:01.378Z,34.00
2022-08-05T12:36:30.551Z,33.90
2022-08-05T12:38:59.144Z,33.54
2022-08-05T12:41:34.459Z,33.29
2022-08-05T12:44:11.691Z,32.72
2022-08-05T12:46:45.702Z,33.10
2022-08-05T12:49:19.064Z,33.06
2022-08-05T12:52:13.080Z,33.12
2022-08-05T12:54:40.515Z,32.34
2022-08-05T12:57:09.762Z,32.56
2022-08-05T13:01:58.538Z,32.58
2022-08-05T13:02:40.209Z,32.14
2022-08-05T13:05:08.336Z,32.89
2022-08-05T13:08:00.161Z,32.87
2022-08-05T13:10:28.731Z,33.24
2022-08-05T13:12:57.893Z,33.31
2022-08-05T13:15:41.449Z,32.82
2022-08-05T13:18:20.239Z,33.09
2022-08-05T13:20:49.160Z,33.12
2022-08-05T13:23:18.187Z,33.09
2022-08-05T13:25:51.945Z,33.39
2022-08-05T13:28:27.279Z,32.68
2022-08-05T13:30:53.955Z,32.65
2022-08-05T13:34:21.874Z,33.25
2022-08-05T13:36:09.112Z,33.81
2022-08-05T13:38:41.891Z,33.40
2022-08-05T13:41:09.766Z,33.03
2022-08-05T13:43:45.689Z,33.44
2022-08-05T13:47:02.011Z,33.83
2022-08-05T13:49:10.443Z,33.44
2022-08-05T13:51:41.162Z,33.01
2022-08-05T13:54:11.719Z,33.46
2022-08-05T13:56:39.990Z,33.18
2022-08-05T13:59:20.164Z,33.79
2022-08-05T14:01:57.874Z,33.56
2022-08-05T14:04:51.357Z,33.72
2022-08-05T14:07:55.536Z,33.82
2022-08-05T14:10:28.631Z,33.81
2022-08-05T14:12:56.107Z,33.74
2022-08-05T14:16:04.312Z,33.92
2022-08-05T14:18:14.937Z,34.05
2022-08-05T14:20:49.085Z,33.91
2022-08-05T14:23:24.816Z,34.03
2022-08-05T14:25:58.921Z,34.24
2022-08-05T14:28:29.411Z,34.24
2022-08-05T14:31:00.611Z,34.40
2022-08-05T14:33:56.629Z,34.11
2022-08-05T14:36:14.487Z,34.32
2022-08-05T14:38:42.066Z,34.17
2022-08-05T14:41:08.572Z,33.93
2022-08-05T14:44:02.168Z,34.46
2022-08-05T14:46:28.867Z,34.00
2022-08-05T14:48:58.851Z,34.41
2022-08-05T14:51:30.757Z,34.36
2022-08-05T14:54:27.027Z,34.50
2022-08-05T14:56:46.834Z,34.89
2022-08-05T14:59:14.199Z,34.51
2022-08-05T15:01:47.963Z,34.45
2022-08-05T15:04:16.532Z,34.28
2022-08-05T15:06:49.585Z,34.28
2022-08-05T15:09:50.633Z,34.15
2022-08-05T15:12:05.568Z,34.67
2022-08-05T15:14:34.871Z,34.61
2022-08-05T15:17:09.881Z,34.27
2022-08-05T15:19:49.064Z,33.64
2022-08-05T15:22:15.998Z,33.78
2022-08-05T15:24:44.204Z,33.74
2022-08-05T15:27:11.371Z,33.64
2022-08-05T15:29:41.817Z,33.47
2022-08-05T15:32:08.809Z,33.14
2022-08-05T15:34:35.336Z,33.14
2022-08-05T15:37:06.156Z,33.26
2022-08-05T15:41:00.570Z,33.52
2022-08-05T15:42:53.514Z,33.03
2022-08-05T15:45:08.834Z,32.74
2022-08-05T15:47:36.447Z,33.33
2022-08-05T15:50:03.990Z,33.30
2022-08-05T15:52:54.192Z,33.17
2022-08-05T15:55:19.300Z,33.42
2022-08-05T15:57:51.344Z,33.16
2022-08-05T16:00:32.535Z,32.41
2022-08-05T16:03:05.022Z,32.85
2022-08-05T16:05:32.015Z,32.96
2022-08-05T16:07:58.577Z,32.69
2022-08-05T16:10:27.895Z,32.77
2022-08-05T16:12:56.276Z,32.47
2022-08-05T16:15:23.791Z,32.48
2022-08-05T16:17:57.853Z,32.17
2022-08-05T16:20:25.561Z,32.14
2022-08-05T16:22:54.396Z,32.09
2022-08-05T16:25:20.948Z,32.10
2022-08-05T16:28:04.825Z,31.98
2022-08-05T16:30:34.119Z,32.06
2022-08-05T16:33:01.386Z,32.24
2022-08-05T16:35:32.120Z,31.79
2022-08-05T16:38:16.174Z,31.70
2022-08-05T16:40:48.102Z,31.78
2022-08-05T16:43:25.076Z,31.66
2022-08-05T16:46:06.598Z,31.72
2022-08-05T16:48:37.743Z,31.47
2022-08-05T16:51:09.753Z,31.38
2022-08-05T16:54:04.771Z,31.45
2022-08-05T16:56:26.411Z,31.18
2022-08-05T16:58:53.010Z,31.10
2022-08-05T17:01:20.218Z,30.93
2022-08-05T17:03:47.346Z,30.82
2022-08-05T17:06:16.513Z,30.82
2022-08-05T17:08:53.388Z,30.82
2022-08-05T17:11:25.350Z,30.68
2022-08-05T17:14:00.482Z,30.80
2022-08-05T17:16:36.787Z,30.80
2022-08-05T17:19:07.452Z,30.53
2022-08-05T17:21:37.259Z,30.74
2022-08-05T17:24:30.278Z,30.76
2022-08-05T17:26:56.928Z,30.75
2022-08-05T17:29:33.791Z,30.86
2022-08-05T17:32:16.991Z,30.40
2022-08-05T17:34:44.872Z,30.17
2022-08-05T17:37:36.019Z,30.08
2022-08-05T17:40:01.167Z,30.16
2022-08-05T17:42:31.897Z,29.72
2022-08-05T17:45:17.994Z,29.53
2022-08-05T17:47:52.956Z,29.31
2022-08-05T17:50:27.768Z,29.23
2022-08-05T17:52:58.777Z,29.45
2022-08-05T17:55:27.292Z,29.39
2022-08-05T17:58:02.056Z,29.18
2022-08-05T18:00:29.419Z,29.01
2022-08-05T18:02:56.379Z,29.09
2022-08-05T18:05:23.781Z,28.87
2022-08-05T18:07:54.705Z,28.72
2022-08-05T18:10:23.959Z,28.83
2022-08-05T18:12:51.173Z,28.56
2022-08-05T18:15:17.805Z,28.78
2022-08-05T18:18:00.481Z,28.36
2022-08-05T18:20:32.280Z,28.27
2022-08-05T18:23:09.081Z,28.12
2022-08-05T18:25:39.146Z,28.40
2022-08-05T18:28:06.934Z,28.31
2022-08-05T18:30:39.105Z,27.89
2022-08-05T18:33:07.368Z,28.14
2022-08-05T18:35:49.711Z,27.67
2022-08-05T18:38:26.217Z,27.66
2022-08-05T18:41:58.150Z,27.37
2022-08-05T18:43:42.936Z,27.41
2022-08-05T18:46:18.085Z,27.12
2022-08-05T18:48:51.981Z,27.44
2022-08-05T18:52:06.152Z,27.00
2022-08-05T18:54:30.935Z,26.97
2022-08-05T18:57:00.945Z,26.94
2022-08-05T18:59:43.089Z,26.71
2022-08-05T19:02:27.050Z,26.72
2022-08-05T19:05:02.114Z,26.41
2022-08-05T19:07:45.350Z,26.42
2022-08-05T19:10:13.169Z,26.37
2022-08-05T19:12:40.266Z,26.53
2022-08-05T19:15:24.957Z,26.22
2022-08-05T19:18:08.366Z,26.43
2022-08-05T19:20:36.799Z,26.48
2022-08-05T19:23:07.960Z,26.03
2022-08-05T19:25:41.902Z,26.12
2022-08-05T19:28:10.260Z,26.30
2022-08-05T19:30:36.833Z,26.01
2022-08-05T19:33:05.148Z,26.19
2022-08-05T19:35:55.647Z,26.22
2022-08-05T19:38:26.453Z,25.82
2022-08-05T19:40:53.554Z,26.04
2022-08-05T19:44:03.886Z,25.80
2022-08-05T19:46:06.725Z,25.97
2022-08-05T19:48:53.196Z,25.95
2022-08-05T19:56:15.291Z,25.89
2022-08-05T19:58:19.646Z,25.71
2022-08-05T20:00:42.437Z,25.60
2022-08-05T20:03:09.506Z,25.45
2022-08-05T20:05:50.282Z,25.21
2022-08-05T20:08:18.197Z,25.71
2022-08-05T20:10:44.845Z,25.42
2022-08-05T20:13:17.368Z,25.54
2022-08-05T20:15:52.702Z,25.37
2022-08-05T20:18:33.567Z,25.52
2022-08-05T20:21:05.054Z,25.60
2022-08-05T20:23:39.493Z,25.11
2022-08-05T20:26:17.797Z,25.21
2022-08-05T20:28:46.052Z,25.20
2022-08-05T20:31:13.616Z,25.12
2022-08-05T20:33:43.055Z,25.04
2022-08-05T20:36:10.072Z,25.09
2022-08-05T20:38:37.725Z,24.94
2022-08-05T20:41:08.287Z,24.66
2022-08-05T20:43:59.176Z,24.73
2022-08-05T20:46:25.060Z,24.64
2022-08-05T20:48:52.371Z,24.67
2022-08-05T20:51:18.935Z,24.57
2022-08-05T20:53:56.745Z,24.59
2022-08-05T20:56:28.708Z,24.43
2022-08-05T20:59:04.230Z,24.44
2022-08-05T21:01:42.611Z,24.58
2022-08-05T21:04:12.525Z,24.38
2022-08-05T21:06:45.774Z,24.47
2022-08-05T21:09:14.355Z,24.49
2022-08-05T21:12:06.493Z,24.19
2022-08-05T21:14:28.804Z,24.20
2022-08-05T21:17:01.365Z,24.54
2022-08-05T21:19:29.917Z,24.27
2022-08-05T21:22:14.686Z,24.08
2022-08-05T21:24:44.389Z,24.06
2022-08-05T21:27:16.295Z,24.08
2022-08-05T21:29:43.248Z,23.89
2022-08-05T21:32:19.898Z,23.89
2022-08-05T21:35:08.713Z,23.89
2022-08-05T21:37:33.465Z,24.20
2022-08-05T21:40:05.832Z,23.77
2022-08-05T21:42:44.237Z,23.80
2022-08-05T21:45:13.600Z,23.80
2022-08-05T21:47:56.745Z,23.54
2022-08-05T21:50:26.324Z,23.49
2022-08-05T21:52:53.365Z,23.06
2022-08-05T21:55:43.156Z,23.16
2022-08-05T21:58:10.400Z,22.97
2022-08-05T22:02:19.661Z,22.83
2022-08-05T22:04:46.431Z,22.93
2022-08-05T22:07:15.722Z,22.40
2022-08-05T22:09:45.485Z,22.04
2022-08-05T22:12:12.977Z,21.92
2022-08-05T22:14:41.450Z,21.89
2022-08-05T22:17:09.879Z,21.89
2022-08-05T22:20:02.074Z,21.81
2022-08-05T22:22:27.912Z,21.52
2022-08-05T22:25:18.147Z,21.40
2022-08-05T22:28:09.109Z,21.27
2022-08-05T22:30:55.458Z,21.52
2022-08-05T22:33:58.407Z,21.40
2022-08-05T22:36:11.094Z,21.27
2022-08-05T22:38:42.655Z,21.03
2022-08-05T22:41:10.164Z,20.90
2022-08-05T22:43:38.110Z,20.51
2022-08-05T22:46:13.127Z,20.60
2022-08-05T22:48:47.485Z,20.40
2022-08-05T22:51:16.070Z,20.21
2022-08-05T22:53:50.290Z,20.29
2022-08-05T22:56:17.571Z,20.17
2022-08-05T22:58:57.659Z,20.04
2022-08-05T23:02:03.901Z,20.01
2022-08-05T23:04:12.890Z,20.04
2022-08-05T23:06:41.029Z,20.03
2022-08-05T23:09:14.186Z,19.99
2022-08-05T23:11:54.802Z,20.12
2022-08-05T23:14:22.617Z,19.97
2022-08-05T23:17:37.923Z,19.94
2022-08-05T23:20:24.453Z,19.66
2022-08-05T23:22:55.610Z,19.84
2022-08-05T23:25:51.132Z,19.68
2022-08-05T23:28:09.534Z,19.88
2022-08-05T23:30:40.249Z,19.88
2022-08-05T23:33:15.940Z,19.73
2022-08-05T23:35:48.819Z,19.78
2022-08-05T23:38:16.180Z,19.81
2022-08-05T23:40:49.843Z,19.77
2022-08-05T23:43:25.800Z,19.71
2022-08-05T23:46:20.888Z,19.28
2022-08-05T23:48:59.773Z,19.18
2022-08-05T23:51:53.647Z,18.97
2022-08-05T23:54:30.347Z,18.95
2022-08-05T23:57:04.037Z,19.09
